Time;durP1;ratioP1;P1;durP2;ratioP2;P2;SDS_P1;SDS_P2;PMS_P1;PMS_P2;Temp;Humidity;BMP_temperature;BMP_pressure;BME280_temperature;BME280_humidity;BME280_pressure;Samples;Min_cycle;Max_cycle;Signal;HPM_P1;HPM_P2
2023/04/23 00:03:11;;;;;;;6.95;2.72;;;14.20;70.40;;;;;;4994400;28;20583;-92
2023/04/23 00:05:40;;;;;;;4.07;2.78;;;14.20;69.60;;;;;;4988710;28;20204;-92
2023/04/23 00:10:51;;;;;;;4.32;2.88;;;14.10;67.50;;;;;;4991915;28;20303;-92
2023/04/23 00:13:18;;;;;;;3.17;2.45;;;14.10;67.60;;;;;;4983469;28;20571;-91
2023/04/23 00:15:48;;;;;;;5.35;2.85;;;14.10;67.20;;;;;;4985634;28;20286;-92
2023/04/23 00:18:15;;;;;;;3.97;3.03;;;14.10;67.00;;;;;;4983720;28;20217;-92
2023/04/23 00:20:43;;;;;;;3.00;2.70;;;14.10;68.00;;;;;;4991847;28;20200;-92
2023/04/23 00:23:10;;;;;;;4.40;2.83;;;14.10;67.00;;;;;;5001275;28;20255;-92
2023/04/23 00:25:37;;;;;;;7.72;2.90;;;14.10;67.60;;;;;;4990707;28;20197;-92
2023/04/23 00:28:12;;;;;;;5.45;3.22;;;14.20;67.90;;;;;;4989982;28;20211;-93
2023/04/23 00:31:02;;;;;;;5.05;2.38;;;14.20;67.10;;;;;;4985515;28;20708;-92
2023/04/23 00:33:29;;;;;;;5.43;2.80;;;14.20;67.10;;;;;;4994837;28;20199;-94
2023/04/23 00:35:56;;;;;;;3.38;2.70;;;14.20;66.10;;;;;;4986564;28;20227;-92
2023/04/23 00:38:25;;;;;;;5.70;2.90;;;14.10;65.20;;;;;;4989157;28;20208;-92
2023/04/23 00:40:52;;;;;;;4.07;2.38;;;14.20;66.00;;;;;;4992807;28;20673;-92
2023/04/23 00:43:20;;;;;;;4.30;2.70;;;14.20;68.10;;;;;;4989198;28;20219;-91
2023/04/23 00:45:47;;;;;;;3.00;2.25;;;14.20;68.30;;;;;;4992343;28;20200;-92
2023/04/23 00:51:03;;;;;;;3.88;2.58;;;14.20;69.80;;;;;;4983809;28;20261;-92
2023/04/23 00:53:30;;;;;;;3.85;3.13;;;14.20;70.30;;;;;;4994017;28;20192;-92
2023/04/23 00:55:58;;;;;;;4.20;2.70;;;14.20;69.60;;;;;;4993837;28;20291;-92
2023/04/23 00:58:26;;;;;;;3.53;2.58;;;14.20;70.10;;;;;;5003844;28;20204;-92
2023/04/23 01:00:54;;;;;;;3.25;2.65;;;14.20;70.90;;;;;;5009401;28;20232;-92
2023/04/23 01:06:30;;;;;;;3.28;2.20;;;14.20;69.80;;;;;;4990332;28;20207;-92
2023/04/23 01:08:59;;;;;;;3.35;2.17;;;14.20;67.50;;;;;;4990497;28;20287;-92
2023/04/23 01:11:26;;;;;;;5.68;2.50;;;14.10;69.40;;;;;;4991402;28;20196;-93
2023/04/23 01:13:53;;;;;;;3.58;2.63;;;14.10;71.20;;;;;;4988768;28;20559;-93
2023/04/23 01:16:22;;;;;;;3.38;2.63;;;14.00;71.50;;;;;;4989459;28;20204;-92
2023/04/23 01:24:18;;;;;;;3.03;2.40;;;13.90;72.10;;;;;;4992122;28;20286;-91
2023/04/23 01:26:45;;;;;;;6.90;2.97;;;13.90;74.00;;;;;;4992885;28;20309;-92
2023/04/23 01:29:33;;;;;;;7.07;2.88;;;14.00;75.90;;;;;;4988606;28;20295;-92
2023/04/23 01:32:00;;;;;;;4.00;2.70;;;14.00;75.40;;;;;;4988589;28;20254;-92
2023/04/23 01:34:27;;;;;;;4.00;2.63;;;14.10;76.60;;;;;;4996161;28;20208;-92
2023/04/23 01:36:55;;;;;;;5.90;2.90;;;14.00;75.50;;;;;;5004772;28;20193;-91
2023/04/23 01:44:48;;;;;;;5.07;2.88;;;14.00;73.80;;;;;;4995033;28;20666;-92
2023/04/23 01:47:24;;;;;;;4.20;2.75;;;14.00;76.60;;;;;;4989449;28;20206;-92
2023/04/23 01:49:51;;;;;;;4.78;2.33;;;14.00;76.60;;;;;;4991673;28;20200;-92
2023/04/23 01:52:18;;;;;;;3.45;2.58;;;14.00;73.90;;;;;;4991854;28;20685;-91
2023/04/23 01:57:38;;;;;;;4.43;2.40;;;14.00;75.30;;;;;;4991829;28;20231;-92
2023/04/23 02:00:25;;;;;;;2.72;2.45;;;14.00;75.20;;;;;;4991106;28;20210;-91
2023/04/23 02:02:52;;;;;;;6.22;2.53;;;14.00;76.60;;;;;;4981259;28;20215;-91
2023/04/23 02:05:28;;;;;;;3.40;2.67;;;13.90;77.30;;;;;;4990061;28;20259;-92
2023/04/23 02:07:56;;;;;;;4.93;2.88;;;13.80;78.30;;;;;;4999439;28;20237;-91
2023/04/23 02:10:29;;;;;;;5.18;2.83;;;13.80;79.50;;;;;;4993379;28;20685;-92
2023/04/23 02:13:04;;;;;;;10.07;2.78;;;13.80;80.70;;;;;;4984072;28;20200;-92
2023/04/23 02:15:31;;;;;;;3.30;2.55;;;13.70;81.00;;;;;;4978239;28;20589;-91
2023/04/23 02:17:59;;;;;;;3.70;2.53;;;13.60;80.50;;;;;;4987717;28;20576;-92
2023/04/23 02:20:26;;;;;;;3.15;2.63;;;13.50;81.40;;;;;;4988204;28;20266;-91
2023/04/23 02:22:55;;;;;;;4.88;2.70;;;13.50;83.10;;;;;;4978637;28;20340;-91
2023/04/23 02:25:27;;;;;;;4.45;2.72;;;13.40;82.20;;;;;;4991333;28;20235;-92
2023/04/23 02:28:15;;;;;;;5.10;2.80;;;13.40;83.10;;;;;;4986032;28;20254;-91
2023/04/23 02:30:45;;;;;;;3.72;2.83;;;13.40;83.30;;;;;;4991561;28;20212;-91
2023/04/23 02:33:13;;;;;;;3.03;2.60;;;13.50;82.90;;;;;;4997169;28;20203;-92
2023/04/23 02:35:41;;;;;;;3.80;3.03;;;13.40;82.70;;;;;;5003214;28;20624;-91
2023/04/23 02:38:08;;;;;;;3.72;2.75;;;13.50;83.20;;;;;;4989745;28;20258;-91
2023/04/23 02:40:36;;;;;;;3.10;2.80;;;13.40;83.60;;;;;;4989665;28;20204;-91
2023/04/23 02:43:06;;;;;;;3.10;2.70;;;13.50;85.60;;;;;;4993197;28;20219;-91
2023/04/23 02:51:22;;;;;;;4.60;2.65;;;13.70;88.10;;;;;;4989547;28;20208;-91
2023/04/23 02:53:56;;;;;;;5.55;2.47;;;13.70;86.80;;;;;;4973543;28;20219;-92
2023/04/23 02:56:43;;;;;;;3.83;2.88;;;13.70;85.90;;;;;;4997212;28;20207;-91
2023/04/23 02:59:10;;;;;;;6.15;2.70;;;13.60;86.80;;;;;;4989686;28;20208;-92
2023/04/23 03:04:20;;;;;;;3.28;2.70;;;13.40;89.60;;;;;;4985634;28;20216;-91
2023/04/23 03:06:48;;;;;;;3.20;2.60;;;13.40;89.60;;;;;;4989547;28;20572;-92
2023/04/23 03:09:15;;;;;;;3.28;2.72;;;13.40;89.50;;;;;;4991067;28;20254;-92
2023/04/23 03:12:02;;;;;;;3.67;2.75;;;13.40;90.00;;;;;;4989846;28;20987;-91
2023/04/23 03:14:29;;;;;;;2.90;2.38;;;13.40;90.50;;;;;;5004379;28;20207;-91
2023/04/23 03:19:43;;;;;;;3.00;2.50;;;13.30;90.30;;;;;;4985741;28;20312;-91
2023/04/23 03:22:09;;;;;;;3.25;2.65;;;13.30;90.30;;;;;;4991539;28;20208;-92
2023/04/23 03:24:40;;;;;;;3.88;3.00;;;13.30;90.40;;;;;;4989594;28;20873;-92
2023/04/23 03:27:23;;;;;;;5.43;2.80;;;13.40;90.60;;;;;;4989079;28;20295;-91
2023/04/23 03:29:49;;;;;;;5.00;2.97;;;13.40;90.50;;;;;;4982375;28;20206;-91
2023/04/23 03:35:02;;;;;;;3.50;2.78;;;13.40;90.40;;;;;;4990749;28;20204;-92
2023/04/23 03:40:11;;;;;;;4.15;2.70;;;13.50;89.30;;;;;;4987025;28;20196;-91
2023/04/23 03:42:38;;;;;;;3.22;2.80;;;13.50;87.70;;;;;;4991197;28;20231;-91
2023/04/23 03:45:06;;;;;;;2.90;2.40;;;13.60;86.80;;;;;;4997187;28;20318;-91
2023/04/23 03:50:24;;;;;;;3.83;2.40;;;13.50;86.50;;;;;;4992322;28;20222;-91
2023/04/23 03:52:51;;;;;;;3.28;2.47;;;13.50;85.50;;;;;;4990960;28;20193;-92
2023/04/23 03:55:19;;;;;;;3.10;2.70;;;13.50;85.20;;;;;;4997299;28;20223;-92
2023/04/23 03:57:46;;;;;;;5.32;2.78;;;13.50;86.20;;;;;;4989285;28;20204;-91
2023/04/23 04:00:14;;;;;;;2.80;2.50;;;13.50;86.40;;;;;;4989572;28;20209;-92
2023/04/23 04:02:43;;;;;;;5.22;2.80;;;13.50;86.20;;;;;;5002366;28;20212;-92
2023/04/23 04:05:10;;;;;;;2.95;2.67;;;13.40;87.90;;;;;;4992787;28;20288;-91
2023/04/23 04:07:37;;;;;;;3.88;2.58;;;13.40;87.70;;;;;;4994090;28;20215;-92
2023/04/23 04:10:05;;;;;;;4.32;2.78;;;13.40;86.90;;;;;;4990151;28;20660;-91
2023/04/23 04:12:32;;;;;;;3.95;2.50;;;13.40;86.80;;;;;;4992134;28;20215;-91
2023/04/23 04:14:59;;;;;;;3.13;2.65;;;13.40;86.60;;;;;;4993955;28;20200;-92
2023/04/23 04:17:27;;;;;;;3.80;2.30;;;13.40;86.00;;;;;;4991887;28;20224;-91
2023/04/23 04:19:56;;;;;;;4.53;2.58;;;13.40;86.60;;;;;;4990321;28;20207;-91
2023/04/23 04:22:23;;;;;;;4.35;2.45;;;13.40;87.50;;;;;;4986579;28;20209;-91
2023/04/23 04:24:51;;;;;;;5.13;2.75;;;13.40;86.30;;;;;;5004944;28;20303;-91
2023/04/23 04:27:19;;;;;;;5.53;2.63;;;13.40;87.50;;;;;;4996078;28;20211;-91
2023/04/23 04:29:47;;;;;;;4.20;2.75;;;13.40;87.10;;;;;;4994819;28;20239;-92
2023/04/23 04:32:15;;;;;;;4.85;2.60;;;13.40;86.90;;;;;;4990891;28;20251;-91
2023/04/23 04:34:41;;;;;;;4.35;2.70;;;13.40;86.70;;;;;;5005284;28;20326;-91
2023/04/23 04:39:57;;;;;;;3.90;2.75;;;13.50;87.40;;;;;;4993567;28;20231;-91
2023/04/23 04:42:24;;;;;;;4.38;3.03;;;13.50;88.70;;;;;;5007524;28;20208;-91
2023/04/23 04:44:51;;;;;;;7.82;2.90;;;13.40;89.80;;;;;;5014096;28;20223;-90
2023/04/23 04:47:20;;;;;;;4.50;2.83;;;13.50;90.40;;;;;;4993236;28;20200;-91
2023/04/23 04:49:47;;;;;;;3.58;2.72;;;13.40;91.10;;;;;;5002420;28;20199;-91
2023/04/23 04:52:20;;;;;;;4.25;3.03;;;13.30;92.50;;;;;;4985829;28;20211;-91
2023/04/23 04:55:00;;;;;;;4.38;3.00;;;13.10;93.30;;;;;;4990167;28;20231;-90
2023/04/23 04:57:27;;;;;;;3.50;3.03;;;12.90;94.50;;;;;;4985167;28;20200;-91
2023/04/23 04:59:54;;;;;;;4.75;3.22;;;12.70;95.30;;;;;;4976186;28;20679;-91
2023/04/23 05:02:22;;;;;;;5.95;2.90;;;12.70;96.00;;;;;;5007435;28;20207;-92
2023/04/23 05:04:49;;;;;;;6.30;3.28;;;12.60;96.30;;;;;;4973030;28;20244;-91
2023/04/23 05:09:58;;;;;;;3.63;3.28;;;12.50;97.10;;;;;;4988148;28;20208;-90
2023/04/23 05:12:25;;;;;;;3.95;3.30;;;12.50;97.50;;;;;;4993383;28;20211;-92
2023/04/23 05:14:52;;;;;;;4.80;3.30;;;12.50;97.70;;;;;;4991842;28;20215;-91
2023/04/23 05:17:19;;;;;;;3.75;2.90;;;12.50;97.70;;;;;;5000758;28;20661;-91
2023/04/23 05:19:46;;;;;;;3.60;3.30;;;12.60;97.40;;;;;;4987974;28;20208;-91
2023/04/23 05:22:14;;;;;;;3.80;3.28;;;12.60;97.40;;;;;;4992299;28;20200;-91
2023/04/23 05:27:23;;;;;;;5.53;3.75;;;12.60;97.60;;;;;;4986706;28;20203;-90
2023/04/23 05:29:50;;;;;;;4.47;3.30;;;12.60;97.70;;;;;;4985028;28;20199;-92
2023/04/23 05:32:17;;;;;;;4.30;3.63;;;12.70;97.70;;;;;;4990484;28;20219;-91
2023/04/23 05:34:43;;;;;;;4.90;3.40;;;12.70;97.50;;;;;;4986267;28;20196;-91
2023/04/23 05:37:11;;;;;;;6.25;3.42;;;12.70;97.80;;;;;;4982842;28;20720;-90
2023/04/23 05:39:38;;;;;;;4.35;3.33;;;12.90;97.20;;;;;;4983555;28;20207;-91
2023/04/23 05:42:06;;;;;;;4.15;3.40;;;12.90;97.30;;;;;;4991386;28;20202;-91
2023/04/23 05:44:33;;;;;;;6.72;3.85;;;13.00;97.00;;;;;;4990595;28;20274;-91
2023/04/23 05:47:00;;;;;;;5.65;3.38;;;13.00;97.00;;;;;;4993155;28;20223;-91
2023/04/23 05:49:27;;;;;;;4.57;3.55;;;13.00;96.60;;;;;;4994663;28;20614;-92
2023/04/23 05:51:54;;;;;;;4.68;4.00;;;13.00;96.80;;;;;;4988686;28;20214;-91
2023/04/23 05:54:22;;;;;;;4.80;3.97;;;12.90;96.80;;;;;;4990151;28;20657;-91
2023/04/23 05:59:31;;;;;;;4.88;3.90;;;12.90;97.30;;;;;;4998149;28;20205;-91
2023/04/23 06:01:58;;;;;;;3.60;3.30;;;13.00;97.10;;;;;;4983672;28;20240;-91
2023/04/23 06:04:25;;;;;;;4.80;3.75;;;13.00;97.20;;;;;;4985691;28;20269;-91
2023/04/23 06:06:52;;;;;;;4.07;3.67;;;13.00;96.90;;;;;;4990819;28;20200;-91
2023/04/23 06:09:19;;;;;;;5.25;4.15;;;12.90;97.30;;;;;;4992177;28;20288;-90
2023/04/23 06:11:49;;;;;;;5.63;3.92;;;12.80;97.70;;;;;;4987689;28;20212;-91
2023/04/23 06:14:16;;;;;;;3.92;3.53;;;12.90;97.80;;;;;;4980868;28;20197;-91
2023/04/23 06:16:44;;;;;;;4.43;3.45;;;12.90;97.90;;;;;;5005176;28;20306;-90
2023/04/23 06:19:11;;;;;;;5.65;3.97;;;12.90;98.00;;;;;;4991891;28;20226;-91
2023/04/23 06:21:38;;;;;;;5.20;3.97;;;12.80;98.30;;;;;;4988946;28;21110;-91
2023/04/23 06:24:06;;;;;;;6.18;4.25;;;12.70;98.90;;;;;;4989472;28;20230;-91
2023/04/23 06:26:33;;;;;;;6.35;4.10;;;12.60;99.20;;;;;;4984289;28;20558;-91
2023/04/23 06:29:00;;;;;;;4.85;4.10;;;12.60;99.60;;;;;;4988533;28;20216;-92
2023/04/23 06:31:28;;;;;;;3.95;3.50;;;12.60;99.50;;;;;;4979844;28;20564;-92
2023/04/23 06:33:57;;;;;;;5.75;4.25;;;12.60;99.30;;;;;;4986106;28;20210;-90
2023/04/23 06:36:24;;;;;;;5.13;4.10;;;12.60;99.30;;;;;;4998510;28;20200;-93
2023/04/23 06:38:50;;;;;;;6.57;4.10;;;12.60;99.20;;;;;;4987080;28;20196;-91
2023/04/23 06:41:18;;;;;;;6.15;4.60;;;12.50;99.60;;;;;;4986844;28;20200;-94
2023/04/23 06:43:47;;;;;;;5.60;4.22;;;12.40;99.90;;;;;;4985420;28;20271;-93
2023/04/23 06:46:14;;;;;;;5.38;4.30;;;12.40;99.90;;;;;;4983644;28;20235;-91
2023/04/23 06:48:41;;;;;;;5.22;4.32;;;12.50;99.90;;;;;;4988849;28;20575;-90
2023/04/23 06:51:10;;;;;;;5.63;4.00;;;12.50;99.90;;;;;;4980639;28;20293;-90
2023/04/23 06:53:38;;;;;;;7.22;4.40;;;12.50;99.90;;;;;;4980773;28;20212;-89
2023/04/23 06:56:06;;;;;;;5.30;4.53;;;12.60;99.90;;;;;;4986782;28;20199;-89
2023/04/23 06:58:33;;;;;;;4.40;3.97;;;12.60;99.90;;;;;;4979800;28;20200;-89
2023/04/23 07:01:03;;;;;;;7.50;4.00;;;12.60;99.90;;;;;;4977618;28;20227;-89
2023/04/23 07:03:30;;;;;;;4.65;4.20;;;12.60;99.90;;;;;;4978500;28;20701;-89
2023/04/23 07:05:58;;;;;;;5.25;4.18;;;12.60;99.90;;;;;;4985802;28;20248;-88
2023/04/23 07:08:26;;;;;;;6.45;4.15;;;12.70;99.90;;;;;;4981421;28;20196;-88
2023/04/23 07:10:53;;;;;;;4.38;3.70;;;12.70;99.90;;;;;;4982780;28;20199;-89
2023/04/23 07:13:20;;;;;;;5.88;4.03;;;12.60;99.90;;;;;;4983314;28;20208;-89
2023/04/23 07:15:47;;;;;;;5.20;4.40;;;12.60;99.90;;;;;;5004552;28;20208;-90
2023/04/23 07:18:15;;;;;;;5.22;4.30;;;12.60;99.90;;;;;;4994404;28;20219;-91
2023/04/23 07:20:42;;;;;;;4.25;3.78;;;12.70;99.90;;;;;;5001316;28;20204;-92
2023/04/23 07:23:08;;;;;;;4.90;3.95;;;12.50;99.90;;;;;;4994145;28;20215;-92
2023/04/23 07:25:41;;;;;;;4.78;4.18;;;12.40;99.90;;;;;;4981085;28;20223;-90
2023/04/23 07:28:08;;;;;;;4.13;3.67;;;12.40;99.90;;;;;;4992813;28;20207;-90
2023/04/23 07:30:34;;;;;;;4.18;3.53;;;12.40;99.90;;;;;;4996055;28;20267;-91
2023/04/23 07:33:01;;;;;;;4.15;3.63;;;12.40;99.90;;;;;;4991689;28;20661;-92
2023/04/23 07:35:28;;;;;;;5.13;3.55;;;12.40;99.90;;;;;;5000097;28;20197;-94
2023/04/23 07:37:56;;;;;;;5.70;3.80;;;12.60;99.90;;;;;;5003232;28;20196;-92
2023/04/23 07:40:24;;;;;;;4.10;3.50;;;12.70;99.90;;;;;;5003566;28;20203;-88
2023/04/23 07:43:03;;;;;;;6.55;4.15;;;12.70;99.90;;;;;;4999688;28;20192;-94
2023/04/23 07:45:30;;;;;;;5.13;4.22;;;12.70;99.90;;;;;;5097772;22;20219;-93
2023/04/23 07:50:29;;;;;;;4.28;3.88;;;12.60;99.90;;;;;;5055213;28;20252;-89
2023/04/23 07:52:56;;;;;;;4.47;3.63;;;12.70;99.90;;;;;;5053625;28;20562;-89
2023/04/23 07:55:23;;;;;;;4.35;3.60;;;12.70;99.90;;;;;;5055515;28;20213;-90
2023/04/23 07:57:50;;;;;;;4.20;3.80;;;12.70;99.90;;;;;;5038037;28;20198;-90
2023/04/23 08:00:19;;;;;;;3.92;3.53;;;12.70;99.90;;;;;;5043661;28;20204;-88
2023/04/23 08:02:47;;;;;;;3.55;3.25;;;12.70;99.90;;;;;;5050174;28;20289;-90
2023/04/23 08:05:14;;;;;;;4.22;3.33;;;12.60;99.90;;;;;;5037313;28;20210;-87
2023/04/23 08:07:41;;;;;;;3.42;3.13;;;12.80;99.90;;;;;;5054028;28;20642;-89
2023/04/23 08:10:09;;;;;;;3.97;3.58;;;12.70;99.90;;;;;;5049874;28;20202;-91
2023/04/23 08:12:36;;;;;;;4.93;3.63;;;12.60;99.90;;;;;;5054309;28;20662;-90
2023/04/23 08:15:04;;;;;;;4.38;3.20;;;12.60;99.90;;;;;;5051333;28;20650;-92
2023/04/23 08:17:33;;;;;;;4.25;3.85;;;12.50;99.90;;;;;;5054167;28;20218;-90
2023/04/23 08:20:00;;;;;;;4.13;3.25;;;12.60;99.90;;;;;;5048035;28;20753;-88
2023/04/23 08:22:27;;;;;;;3.90;3.40;;;12.70;99.90;;;;;;5027478;28;20198;-90
2023/04/23 08:24:54;;;;;;;4.25;3.33;;;13.00;99.90;;;;;;5036774;28;20251;-90
2023/04/23 08:27:21;;;;;;;4.97;3.75;;;13.20;99.90;;;;;;5032126;28;20209;-89
2023/04/23 08:29:48;;;;;;;4.28;3.50;;;13.40;99.90;;;;;;5050265;28;20201;-88
2023/04/23 08:32:15;;;;;;;4.85;3.60;;;13.50;99.90;;;;;;5051458;28;20285;-91
2023/04/23 08:34:44;;;;;;;3.97;2.90;;;13.80;99.90;;;;;;5053815;28;20202;-88
2023/04/23 08:37:11;;;;;;;4.20;3.10;;;14.10;99.20;;;;;;5050592;28;20194;-89
2023/04/23 08:39:40;;;;;;;3.42;3.10;;;14.50;97.70;;;;;;5044243;28;20555;-89
2023/04/23 08:42:11;;;;;;;3.70;3.40;;;14.60;96.80;;;;;;5050362;28;20259;-93
2023/04/23 08:44:41;;;;;;;3.33;3.03;;;14.50;96.80;;;;;;5046651;28;20190;-92
2023/04/23 08:47:10;;;;;;;4.35;3.30;;;14.50;97.80;;;;;;5032174;28;20545;-89
2023/04/23 08:49:41;;;;;;;4.45;3.20;;;14.40;97.00;;;;;;5033082;28;20666;-91
2023/04/23 08:52:16;;;;;;;2.97;2.78;;;14.40;96.60;;;;;;5045263;28;20205;-89
2023/04/23 08:54:48;;;;;;;2.85;2.65;;;14.50;96.10;;;;;;5051356;28;20660;-88
2023/04/23 08:57:16;;;;;;;3.35;2.70;;;15.00;95.10;;;;;;5031662;28;20187;-91
2023/04/23 08:59:43;;;;;;;4.90;2.90;;;15.30;93.80;;;;;;5053658;28;20205;-88
2023/04/23 09:02:10;;;;;;;3.25;2.70;;;15.50;92.90;;;;;;5044970;28;20217;-88
2023/04/23 09:04:38;;;;;;;2.80;2.60;;;15.70;90.70;;;;;;5028533;28;20198;-87
2023/04/23 09:07:06;;;;;;;3.08;2.40;;;15.40;91.60;;;;;;5023873;28;20203;-88
2023/04/23 09:09:36;;;;;;;3.10;2.75;;;15.20;92.70;;;;;;5033307;28;20260;-88
2023/04/23 09:12:05;;;;;;;3.45;2.42;;;15.00;92.10;;;;;;5046265;28;20201;-95
2023/04/23 09:14:31;;;;;;;4.43;2.47;;;15.10;91.90;;;;;;5051463;28;20213;-89
2023/04/23 09:16:59;;;;;;;4.13;2.88;;;15.10;91.80;;;;;;5048516;28;20202;-92
2023/04/23 09:19:27;;;;;;;3.33;2.70;;;15.00;92.70;;;;;;5033797;28;20209;-92
2023/04/23 09:21:54;;;;;;;3.38;2.65;;;15.00;93.80;;;;;;5048696;28;20264;-91
2023/04/23 09:24:22;;;;;;;3.63;2.58;;;15.10;93.40;;;;;;5051914;28;20212;-94
2023/04/23 09:26:53;;;;;;;3.30;2.75;;;15.30;92.10;;;;;;5029453;28;20233;-90
2023/04/23 09:29:22;;;;;;;3.10;2.67;;;15.20;92.90;;;;;;5049591;28;20565;-90
2023/04/23 09:31:51;;;;;;;2.80;2.50;;;15.20;92.90;;;;;;5052300;28;20202;-93
2023/04/23 09:34:19;;;;;;;3.63;2.80;;;15.40;92.60;;;;;;5047408;28;20293;-91
2023/04/23 09:36:48;;;;;;;3.63;3.00;;;15.40;90.90;;;;;;5049145;28;20198;-91
2023/04/23 09:39:16;;;;;;;3.42;3.00;;;15.40;91.60;;;;;;5049172;28;20244;-91
2023/04/23 09:41:48;;;;;;;2.95;2.75;;;15.60;91.60;;;;;;5046317;28;20597;-91
2023/04/23 09:44:21;;;;;;;2.58;2.38;;;15.80;90.50;;;;;;5049976;28;20194;-90
2023/04/23 09:46:49;;;;;;;4.65;2.60;;;15.80;90.70;;;;;;5046840;28;20216;-91
2023/04/23 09:49:16;;;;;;;2.72;2.42;;;15.90;88.10;;;;;;5049765;28;20210;-92
2023/04/23 09:51:45;;;;;;;3.15;2.80;;;15.80;89.00;;;;;;5033571;28;20205;-91
2023/04/23 09:54:14;;;;;;;2.88;2.55;;;15.70;90.20;;;;;;5041963;28;20210;-92
2023/04/23 09:56:42;;;;;;;3.33;2.83;;;15.80;89.90;;;;;;5031213;28;20204;-90
2023/04/23 09:59:24;;;;;;;3.92;2.92;;;15.60;85.90;;;;;;5045670;28;20281;-91
2023/04/23 10:01:51;;;;;;;2.95;2.75;;;15.50;88.10;;;;;;5050769;28;20240;-89
2023/04/23 10:04:21;;;;;;;4.05;2.50;;;15.60;87.70;;;;;;5047519;28;20203;-88
2023/04/23 10:06:48;;;;;;;3.47;2.70;;;15.70;88.50;;;;;;5028966;28;20245;-88
2023/04/23 10:09:15;;;;;;;5.28;2.90;;;15.80;89.70;;;;;;5026609;28;20198;-88
2023/04/23 10:11:43;;;;;;;3.15;2.85;;;15.60;87.40;;;;;;5049395;28;20212;-88
2023/04/23 10:14:10;;;;;;;4.75;2.85;;;15.70;89.10;;;;;;5037754;28;20214;-88
2023/04/23 10:16:40;;;;;;;3.10;2.75;;;15.70;90.10;;;;;;5046013;28;20198;-88
2023/04/23 10:19:12;;;;;;;3.20;2.90;;;15.80;89.50;;;;;;5022408;28;20274;-88
2023/04/23 10:21:41;;;;;;;9.48;4.68;;;15.80;90.30;;;;;;5027590;28;20212;-89
2023/04/23 10:24:10;;;;;;;10.88;3.67;;;15.80;86.60;;;;;;5042829;28;20856;-89
2023/04/23 10:26:47;;;;;;;4.13;3.17;;;15.80;86.20;;;;;;5044188;28;20214;-94
2023/04/23 10:29:16;;;;;;;4.72;3.00;;;15.80;87.10;;;;;;5045716;28;20198;-94
2023/04/23 10:31:46;;;;;;;3.20;2.83;;;15.70;87.90;;;;;;5048222;28;20210;-92
2023/04/23 10:34:13;;;;;;;3.30;3.00;;;16.20;86.80;;;;;;5045917;28;20208;-92
2023/04/23 10:36:40;;;;;;;3.30;2.92;;;16.20;82.40;;;;;;5051835;28;20276;-92
2023/04/23 10:39:09;;;;;;;4.28;2.70;;;16.20;85.00;;;;;;5017922;28;20281;-95
2023/04/23 10:41:38;;;;;;;3.75;3.30;;;16.10;83.10;;;;;;5041859;28;20189;-92
2023/04/23 10:44:06;;;;;;;4.13;2.67;;;16.20;85.10;;;;;;5063557;28;20646;-90
2023/04/23 10:46:34;;;;;;;3.60;2.88;;;16.00;82.70;;;;;;5043393;28;20226;-91
2023/04/23 10:49:20;;;;;;;12.27;6.85;;;16.30;80.20;;;;;;5052504;28;20247;-95
2023/04/23 10:51:48;;;;;;;3.05;2.80;;;16.60;78.50;;;;;;5021355;28;20704;-94
2023/04/23 10:54:35;;;;;;;5.10;3.70;;;16.80;78.60;;;;;;5045642;28;20238;-95
2023/04/23 10:57:04;;;;;;;6.90;5.53;;;16.90;75.40;;;;;;5037145;28;20205;-91
2023/04/23 10:59:32;;;;;;;11.15;6.82;;;17.20;65.40;;;;;;5050673;28;20198;-89
2023/04/23 11:02:07;;;;;;;2.80;2.60;;;17.30;72.40;;;;;;5048995;28;20248;-88
2023/04/23 11:04:37;;;;;;;3.33;2.83;;;17.40;68.90;;;;;;5052267;28;20201;-94
2023/04/23 11:07:07;;;;;;;3.15;2.78;;;17.90;62.80;;;;;;5030562;28;20233;-93
2023/04/23 11:09:40;;;;;;;6.30;5.20;;;18.30;60.90;;;;;;5029465;28;20201;-92
2023/04/23 11:12:09;;;;;;;2.50;2.30;;;18.60;54.70;;;;;;5044406;28;20194;-92
2023/04/23 11:17:57;;;;;;;5.55;3.95;;;18.60;50.90;;;;;;5037128;28;20225;-92
2023/04/23 11:20:26;;;;;;;2.25;2.05;;;18.80;48.20;;;;;;5044469;28;20557;-91
2023/04/23 11:22:53;;;;;;;3.00;2.70;;;18.60;48.50;;;;;;5043666;28;20206;-90
2023/04/23 11:25:21;;;;;;;2.70;2.47;;;18.50;45.60;;;;;;5042523;28;20199;-92
2023/04/23 11:27:49;;;;;;;3.17;2.60;;;18.40;47.80;;;;;;5049109;28;20209;-93
2023/04/23 11:30:18;;;;;;;2.83;2.30;;;18.40;45.40;;;;;;5027044;28;20209;-92
2023/04/23 11:32:47;;;;;;;3.25;2.50;;;18.30;45.60;;;;;;5044337;28;20201;-90
2023/04/23 11:35:15;;;;;;;3.35;2.28;;;18.40;48.20;;;;;;5023817;28;20614;-93
2023/04/23 11:40:52;;;;;;;2.58;2.38;;;18.80;44.80;;;;;;5038228;28;20248;-92
2023/04/23 11:43:21;;;;;;;2.58;2.28;;;18.60;43.00;;;;;;5029222;28;20201;-92
2023/04/23 11:45:49;;;;;;;2.40;2.00;;;18.30;44.00;;;;;;5048127;28;20586;-93
2023/04/23 11:48:17;;;;;;;2.85;2.30;;;18.20;46.30;;;;;;5050016;28;20256;-93
2023/04/23 11:50:44;;;;;;;2.92;2.47;;;17.80;44.00;;;;;;5042984;28;20207;-93
2023/04/23 11:55:54;;;;;;;4.07;2.20;;;18.10;47.30;;;;;;5044633;28;20221;-91
2023/04/23 11:58:22;;;;;;;3.63;2.72;;;18.30;45.90;;;;;;5047862;28;20205;-91
2023/04/23 12:00:49;;;;;;;2.53;2.33;;;18.60;45.80;;;;;;5027455;28;20201;-92
2023/04/23 12:03:16;;;;;;;2.42;2.25;;;18.70;46.80;;;;;;5032481;28;20976;-91
2023/04/23 12:05:45;;;;;;;2.55;2.30;;;18.90;42.50;;;;;;5018891;28;20206;-92
2023/04/23 12:08:16;;;;;;;3.10;2.63;;;19.00;43.80;;;;;;5050292;28;20206;-92
2023/04/23 12:10:45;;;;;;;2.90;2.30;;;18.90;41.10;;;;;;5029926;28;20597;-92
2023/04/23 12:13:16;;;;;;;2.45;2.10;;;18.70;43.10;;;;;;5052365;28;20194;-92
2023/04/23 12:15:47;;;;;;;2.03;1.92;;;18.70;43.70;;;;;;5050898;28;20206;-91
2023/04/23 12:18:14;;;;;;;2.40;2.10;;;18.90;40.90;;;;;;5049504;28;20222;-91
2023/04/23 12:20:41;;;;;;;2.72;2.20;;;18.50;42.50;;;;;;5036768;28;20212;-91
2023/04/23 12:23:08;;;;;;;2.95;2.00;;;18.70;42.60;;;;;;5034308;28;20194;-90
2023/04/23 12:25:37;;;;;;;2.72;2.10;;;18.90;41.20;;;;;;5034111;28;20202;-89
2023/04/23 12:28:05;;;;;;;3.00;2.10;;;18.50;38.20;;;;;;5036335;28;20193;-89
2023/04/23 12:30:33;;;;;;;2.38;2.10;;;18.20;41.40;;;;;;5034057;28;20259;-89
2023/04/23 12:33:00;;;;;;;2.60;1.98;;;18.40;41.40;;;;;;5034432;28;20198;-89
2023/04/23 12:35:38;;;;;;;2.28;2.08;;;18.30;39.80;;;;;;5054423;28;20201;-91
2023/04/23 12:38:05;;;;;;;3.22;2.28;;;18.40;39.10;;;;;;5049498;28;20196;-93
2023/04/23 12:40:33;;;;;;;2.55;2.35;;;18.60;37.50;;;;;;5031638;28;20206;-91
2023/04/23 12:43:01;;;;;;;2.33;2.13;;;18.50;37.10;;;;;;5045302;28;20667;-91
2023/04/23 12:45:37;;;;;;;2.50;2.22;;;18.20;37.90;;;;;;5029867;28;20201;-92
2023/04/23 12:48:04;;;;;;;3.03;2.38;;;18.00;39.70;;;;;;5046702;28;20201;-91
2023/04/23 12:50:31;;;;;;;3.38;2.70;;;17.80;41.80;;;;;;5052124;28;20200;-91
2023/04/23 12:52:58;;;;;;;2.53;2.30;;;17.80;44.90;;;;;;5028958;28;20301;-91
2023/04/23 12:55:25;;;;;;;2.60;2.35;;;18.00;42.10;;;;;;5017402;28;20571;-93
2023/04/23 12:57:52;;;;;;;3.45;2.50;;;18.60;43.20;;;;;;5043468;28;22190;-91
2023/04/23 13:00:22;;;;;;;4.05;2.50;;;18.80;36.90;;;;;;5049310;28;20288;-92
2023/04/23 13:02:49;;;;;;;3.47;2.38;;;18.70;37.80;;;;;;5048836;28;20198;-92
2023/04/23 13:05:16;;;;;;;2.45;2.25;;;18.60;36.40;;;;;;5045235;28;20201;-92
2023/04/23 13:07:43;;;;;;;3.33;2.45;;;18.40;37.40;;;;;;5050819;28;20236;-91
2023/04/23 13:10:11;;;;;;;2.55;2.35;;;18.50;37.60;;;;;;5048475;28;20202;-94
2023/04/23 13:12:39;;;;;;;2.50;2.30;;;18.30;38.90;;;;;;5029867;28;20213;-94
2023/04/23 13:15:11;;;;;;;2.40;2.20;;;18.30;39.20;;;;;;5050597;28;20202;-95
2023/04/23 13:17:58;;;;;;;3.88;2.35;;;18.30;38.30;;;;;;5051656;28;20218;-94
2023/04/23 13:20:25;;;;;;;2.42;2.10;;;18.40;38.70;;;;;;5015266;28;20221;-94
2023/04/23 13:22:52;;;;;;;3.30;2.50;;;18.40;38.40;;;;;;5049655;28;20264;-94
2023/04/23 13:25:19;;;;;;;3.05;2.50;;;18.50;39.20;;;;;;5012852;28;20655;-94
2023/04/23 13:27:46;;;;;;;3.35;2.65;;;18.70;38.20;;;;;;5043599;28;20595;-94
2023/04/23 13:30:14;;;;;;;3.08;2.88;;;18.60;38.00;;;;;;5050700;28;20198;-94
2023/04/23 13:32:41;;;;;;;4.63;2.70;;;18.70;38.00;;;;;;5025520;28;20207;-94
2023/04/23 13:35:10;;;;;;;3.75;2.38;;;18.80;38.30;;;;;;5022760;28;20194;-94
2023/04/23 13:37:39;;;;;;;3.95;2.40;;;19.00;36.70;;;;;;5039708;28;20199;-92
2023/04/23 13:40:07;;;;;;;3.70;2.55;;;19.20;36.60;;;;;;5046421;28;20569;-91
2023/04/23 13:42:34;;;;;;;2.92;2.63;;;19.30;34.50;;;;;;5052650;28;20214;-91
2023/04/23 13:45:03;;;;;;;3.13;2.90;;;19.30;34.30;;;;;;5048365;28;20221;-91
2023/04/23 13:47:32;;;;;;;3.28;2.83;;;18.90;35.90;;;;;;5046512;28;20224;-91
2023/04/23 13:50:01;;;;;;;3.80;3.08;;;18.80;36.00;;;;;;5048468;28;20214;-92
2023/04/23 13:55:11;;;;;;;3.08;2.78;;;18.80;35.20;;;;;;5052607;28;20261;-92
2023/04/23 13:57:38;;;;;;;3.33;2.70;;;18.80;35.80;;;;;;5021156;28;20210;-91
2023/04/23 14:03:26;;;;;;;3.50;3.20;;;19.00;36.40;;;;;;5050266;28;20594;-92
2023/04/23 14:05:54;;;;;;;4.38;3.45;;;18.40;38.40;;;;;;5060096;28;20201;-92